createdAt,value
2022-12-03T00:00:57.587Z,45.41
2022-12-03T00:01:59.176Z,45.51
2022-12-03T00:03:01.008Z,45.26
2022-12-03T00:04:02.915Z,45.58
2022-12-03T00:05:05.249Z,45.29
2022-12-03T00:06:06.988Z,45.66
2022-12-03T00:07:08.505Z,45.47
2022-12-03T00:08:10.208Z,45.35
2022-12-03T00:09:11.846Z,45.49
2022-12-03T00:10:13.405Z,45.34
2022-12-03T00:11:14.947Z,45.36
2022-12-03T00:12:16.500Z,45.22
2022-12-03T00:13:18.060Z,45.39
2022-12-03T00:14:19.584Z,45.43
2022-12-03T00:15:21.142Z,45.35
2022-12-03T00:16:22.807Z,45.36
2022-12-03T00:17:24.412Z,45.36
2022-12-03T00:18:25.971Z,45.18
2022-12-03T00:19:27.532Z,45.39
2022-12-03T00:20:29.126Z,45.39
2022-12-03T00:21:30.653Z,45.41
2022-12-03T00:22:32.346Z,45.57
2022-12-03T00:23:38.535Z,45.48
2022-12-03T00:24:43.218Z,45.45
2022-12-03T00:25:44.738Z,45.47
2022-12-03T00:26:46.288Z,45.39
2022-12-03T00:27:47.825Z,45.29
2022-12-03T00:28:49.421Z,45.27
2022-12-03T00:29:50.947Z,45.39
2022-12-03T00:30:54.227Z,45.13
2022-12-03T00:31:55.867Z,45.22
2022-12-03T00:32:57.875Z,45.48
2022-12-03T00:33:59.465Z,45.17
2022-12-03T00:35:01.017Z,45.40
2022-12-03T00:36:02.650Z,45.25
2022-12-03T00:37:04.177Z,45.22
2022-12-03T00:38:05.690Z,45.04
2022-12-03T00:39:07.227Z,45.30
2022-12-03T00:40:09.490Z,45.22
2022-12-03T00:41:11.111Z,45.30
2022-12-03T00:42:12.683Z,45.42
2022-12-03T00:43:14.256Z,45.46
2022-12-03T00:44:15.892Z,45.30
2022-12-03T00:45:17.530Z,45.07
2022-12-03T00:46:21.628Z,45.19
2022-12-03T00:47:23.476Z,45.44
2022-12-03T00:48:25.024Z,45.29
2022-12-03T00:49:26.619Z,45.20
2022-12-03T00:50:28.300Z,45.44
2022-12-03T00:51:29.993Z,45.27
2022-12-03T00:52:31.548Z,45.13
2022-12-03T00:53:33.144Z,45.30
2022-12-03T00:54:35.923Z,45.24
2022-12-03T00:55:37.437Z,45.18
2022-12-03T00:56:39.014Z,45.20
2022-12-03T00:57:40.555Z,45.30
2022-12-03T00:58:42.102Z,45.16
2022-12-03T00:59:43.632Z,45.37
2022-12-03T01:00:45.190Z,45.29
2022-12-03T01:01:46.861Z,45.14
2022-12-03T01:02:48.472Z,45.32
2022-12-03T01:03:50.058Z,45.17
2022-12-03T01:04:52.031Z,45.03
2022-12-03T01:05:54.188Z,45.08
2022-12-03T01:06:55.946Z,45.21
2022-12-03T01:07:57.551Z,45.26
2022-12-03T01:08:59.235Z,45.40
2022-12-03T01:10:00.807Z,45.11
2022-12-03T01:11:02.376Z,45.13
2022-12-03T01:12:03.945Z,45.19
2022-12-03T01:13:05.585Z,45.13
2022-12-03T01:15:13.409Z,45.29
2022-12-03T01:16:15.067Z,45.11
2022-12-03T01:17:16.656Z,45.04
2022-12-03T01:18:18.173Z,45.14
2022-12-03T01:19:19.953Z,45.08
2022-12-03T01:20:21.480Z,45.20
2022-12-03T01:21:22.999Z,45.23
2022-12-03T01:24:28.116Z,45.13
2022-12-03T01:25:29.709Z,45.14
2022-12-03T01:26:31.335Z,45.13
2022-12-03T01:27:32.916Z,45.22
2022-12-03T01:28:34.600Z,45.15
2022-12-03T01:29:36.160Z,45.04
2022-12-03T01:30:57.662Z,45.10
2022-12-03T01:32:17.328Z,45.14
2022-12-03T01:33:18.878Z,45.30
2022-12-03T01:34:20.415Z,44.96
2022-12-03T01:35:22.004Z,45.24
2022-12-03T01:36:23.643Z,45.44
2022-12-03T01:37:26.707Z,45.46
2022-12-03T01:38:28.268Z,45.33
2022-12-03T01:39:29.931Z,45.40
2022-12-03T01:40:31.533Z,45.28
2022-12-03T01:41:35.553Z,45.31
2022-12-03T01:42:40.968Z,45.48
2022-12-03T01:43:43.515Z,45.28
2022-12-03T01:44:45.956Z,45.37
2022-12-03T01:45:47.643Z,45.39
2022-12-03T01:46:51.160Z,45.34
2022-12-03T01:47:52.831Z,45.57
2022-12-03T01:48:56.137Z,45.47
2022-12-03T01:50:11.820Z,45.46
2022-12-03T01:51:14.625Z,45.32
2022-12-03T01:52:19.092Z,45.33
2022-12-03T01:53:20.736Z,45.26
2022-12-03T01:54:36.466Z,45.33
2022-12-03T01:55:38.228Z,45.25
2022-12-03T01:56:39.772Z,45.27
2022-12-03T01:57:43.429Z,45.15
2022-12-03T01:58:46.402Z,45.33
2022-12-03T01:59:48.668Z,45.18
2022-12-03T02:00:50.200Z,45.39
2022-12-03T02:01:51.861Z,45.44
2022-12-03T02:03:00.688Z,45.29
2022-12-03T02:04:02.395Z,45.24
2022-12-03T02:05:15.302Z,45.28
2022-12-03T02:06:20.836Z,45.38
2022-12-03T02:07:34.165Z,45.42
2022-12-03T02:08:37.684Z,45.37
2022-12-03T02:09:39.177Z,45.25
2022-12-03T02:10:40.774Z,45.19
2022-12-03T02:11:49.664Z,45.12
2022-12-03T02:12:57.840Z,45.39
2022-12-03T02:14:03.286Z,45.42
2022-12-03T02:15:09.897Z,45.45
2022-12-03T02:16:11.569Z,45.38
2022-12-03T02:17:13.501Z,45.43
2022-12-03T02:18:15.095Z,45.50
2022-12-03T02:19:30.323Z,45.65
2022-12-03T02:20:51.053Z,45.37
2022-12-03T02:22:05.019Z,45.32
2022-12-03T02:23:20.772Z,45.45
2022-12-03T02:24:31.161Z,45.29
2022-12-03T02:25:34.713Z,45.22
2022-12-03T02:26:36.285Z,45.25
2022-12-03T02:27:38.233Z,45.40
2022-12-03T02:28:40.133Z,45.34
2022-12-03T02:29:41.714Z,45.36
2022-12-03T02:30:43.373Z,45.46
2022-12-03T02:31:45.033Z,45.41
2022-12-03T02:32:48.374Z,45.28
2022-12-03T02:33:50.521Z,45.22
2022-12-03T02:34:52.578Z,45.29
2022-12-03T02:35:56.897Z,45.41
2022-12-03T02:37:01.417Z,45.66
2022-12-03T02:38:12.235Z,45.48
2022-12-03T02:39:13.817Z,45.33
2022-12-03T02:40:20.353Z,45.42
2022-12-03T02:41:40.711Z,45.33
2022-12-03T02:42:43.021Z,45.45
2022-12-03T02:43:44.549Z,45.19
2022-12-03T02:44:46.232Z,45.36
2022-12-03T02:45:52.557Z,45.31
2022-12-03T02:46:54.216Z,45.32
2022-12-03T02:48:18.173Z,45.32
2022-12-03T02:49:19.732Z,45.35
2022-12-03T02:50:29.297Z,45.36
2022-12-03T02:51:30.997Z,45.23
2022-12-03T02:52:32.662Z,45.26
2022-12-03T02:53:53.965Z,45.48
2022-12-03T02:54:55.942Z,45.22
2022-12-03T02:56:00.151Z,45.21
2022-12-03T02:57:02.149Z,45.41
2022-12-03T02:58:05.174Z,45.41
2022-12-03T02:59:06.806Z,45.35
2022-12-03T03:00:10.589Z,45.19
2022-12-03T03:01:12.970Z,45.21
2022-12-03T03:02:14.922Z,45.32
2022-12-03T03:03:17.935Z,45.17
2022-12-03T03:04:19.611Z,45.27
2022-12-03T03:05:23.420Z,45.13
2022-12-03T03:06:25.484Z,45.32
2022-12-03T03:07:27.117Z,45.35
2022-12-03T03:08:29.429Z,45.29
2022-12-03T03:09:31.328Z,45.15
2022-12-03T03:10:35.088Z,45.37
2022-12-03T03:11:36.779Z,45.32
2022-12-03T03:12:39.523Z,45.14
2022-12-03T03:13:41.323Z,45.41
2022-12-03T03:14:42.924Z,45.22
2022-12-03T03:15:45.123Z,45.37
2022-12-03T03:16:55.775Z,45.38
2022-12-03T03:17:57.453Z,45.31
2022-12-03T03:18:59.031Z,45.15
2022-12-03T03:20:01.091Z,45.33
2022-12-03T03:21:03.899Z,45.16
2022-12-03T03:22:05.517Z,45.42
2022-12-03T03:23:17.732Z,45.25
2022-12-03T03:24:20.747Z,45.31
2022-12-03T03:25:24.696Z,45.26
2022-12-03T03:26:26.579Z,45.38
2022-12-03T03:27:28.892Z,45.28
2022-12-03T03:28:31.244Z,45.24
2022-12-03T03:29:33.711Z,45.28
2022-12-03T03:30:36.002Z,45.44
2022-12-03T03:31:38.942Z,45.29
2022-12-03T03:32:42.627Z,45.26
2022-12-03T03:33:48.052Z,45.40
2022-12-03T03:34:49.873Z,45.20
2022-12-03T03:35:51.643Z,45.37
2022-12-03T03:36:53.342Z,45.18
2022-12-03T03:37:56.907Z,45.27
2022-12-03T03:38:58.713Z,45.18
2022-12-03T03:40:00.260Z,45.24
2022-12-03T03:41:05.156Z,45.35
2022-12-03T03:42:06.764Z,45.36
2022-12-03T03:43:08.514Z,45.38
2022-12-03T03:44:10.464Z,45.47
2022-12-03T03:45:12.585Z,45.25
2022-12-03T03:46:15.185Z,45.22
2022-12-03T03:47:18.209Z,45.16
2022-12-03T03:48:21.086Z,45.37
2022-12-03T03:49:22.995Z,45.13
2022-12-03T03:50:25.192Z,45.05
2022-12-03T03:51:26.911Z,45.28
2022-12-03T03:52:28.840Z,45.07
2022-12-03T03:53:30.985Z,45.00
2022-12-03T03:54:32.971Z,45.11
2022-12-03T03:55:34.798Z,45.11
2022-12-03T03:56:36.994Z,45.28
2022-12-03T03:57:39.346Z,45.28
2022-12-03T03:58:41.386Z,45.25
2022-12-03T03:59:43.010Z,45.40
2022-12-03T04:00:47.428Z,45.27
2022-12-03T04:01:49.053Z,45.03
2022-12-03T04:02:52.368Z,45.08
2022-12-03T04:03:54.890Z,45.18
2022-12-03T04:04:56.489Z,44.98
2022-12-03T04:05:58.326Z,45.21
2022-12-03T04:07:00.109Z,45.05
2022-12-03T04:08:01.776Z,45.01
2022-12-03T04:09:03.422Z,45.06
2022-12-03T04:10:25.545Z,45.18
2022-12-03T04:11:45.408Z,45.00
2022-12-03T04:13:57.160Z,44.96
2022-12-03T04:14:59.001Z,45.08
2022-12-03T04:16:00.636Z,45.19
2022-12-03T04:17:02.255Z,45.06
2022-12-03T04:18:26.859Z,45.08
2022-12-03T04:19:28.385Z,45.29
2022-12-03T04:20:29.957Z,45.38
2022-12-03T04:21:49.953Z,45.21
2022-12-03T04:22:51.474Z,45.05
2022-12-03T04:23:53.031Z,45.31
2022-12-03T04:25:14.572Z,45.13
2022-12-03T04:26:34.596Z,44.98
2022-12-03T04:27:54.552Z,45.12
2022-12-03T04:28:56.233Z,45.15
2022-12-03T04:30:59.320Z,45.21
2022-12-03T04:32:19.845Z,45.11
2022-12-03T04:33:40.327Z,45.16
2022-12-03T04:35:00.177Z,45.07
2022-12-03T04:37:04.235Z,45.22
2022-12-03T04:38:05.751Z,45.17
2022-12-03T04:39:07.285Z,45.13
2022-12-03T04:40:29.080Z,45.11
2022-12-03T04:41:30.722Z,45.07
2022-12-03T04:42:32.251Z,45.02
2022-12-03T04:43:35.055Z,45.14
2022-12-03T04:44:37.442Z,45.04
2022-12-03T04:45:39.009Z,45.04
2022-12-03T04:46:40.795Z,45.04
2022-12-03T04:47:42.380Z,45.11
2022-12-03T04:48:43.880Z,45.04
2022-12-03T04:50:48.218Z,45.03
2022-12-03T04:51:49.782Z,45.14
2022-12-03T04:52:51.333Z,45.29
2022-12-03T04:53:52.883Z,45.23
2022-12-03T04:54:54.619Z,45.21
2022-12-03T04:55:56.316Z,45.14
2022-12-03T04:56:57.938Z,45.34
2022-12-03T04:57:59.599Z,45.35
2022-12-03T04:59:01.167Z,45.03
2022-12-03T05:00:04.223Z,45.17
2022-12-03T05:01:05.780Z,45.32
2022-12-03T05:02:08.016Z,45.32
2022-12-03T05:03:09.737Z,45.06
2022-12-03T05:04:12.189Z,45.19
2022-12-03T05:05:14.036Z,45.21
2022-12-03T05:06:15.550Z,44.99
2022-12-03T05:07:17.120Z,45.03
2022-12-03T05:08:18.722Z,45.08
2022-12-03T05:09:20.379Z,45.07
2022-12-03T05:10:21.980Z,45.34
2022-12-03T05:11:23.555Z,45.27
2022-12-03T05:12:25.189Z,45.10
2022-12-03T05:13:26.780Z,44.83
2022-12-03T05:14:28.353Z,45.15
2022-12-03T05:15:29.907Z,44.95
2022-12-03T05:16:31.674Z,45.05
2022-12-03T05:17:33.432Z,45.21
2022-12-03T05:18:35.075Z,45.07
2022-12-03T05:19:55.255Z,45.14
2022-12-03T05:20:56.806Z,45.00
2022-12-03T05:21:58.365Z,45.30
2022-12-03T05:22:59.945Z,45.24
2022-12-03T05:24:02.142Z,45.17
2022-12-03T05:25:04.244Z,44.98
2022-12-03T05:26:05.849Z,45.27
2022-12-03T05:27:07.413Z,45.30
2022-12-03T05:28:09.088Z,45.33
2022-12-03T05:29:10.673Z,45.26
2022-12-03T05:30:12.507Z,45.28
2022-12-03T05:31:14.231Z,45.26
2022-12-03T05:32:15.853Z,45.07
2022-12-03T05:33:17.575Z,45.03
2022-12-03T05:34:19.097Z,45.17
2022-12-03T05:35:20.676Z,45.11
2022-12-03T05:36:22.396Z,45.33
2022-12-03T05:37:23.941Z,45.17
2022-12-03T05:38:25.497Z,45.15
2022-12-03T05:39:27.049Z,45.13
2022-12-03T05:40:28.711Z,45.12
2022-12-03T05:41:48.511Z,45.05
2022-12-03T05:43:01.309Z,44.99
2022-12-03T05:44:02.974Z,45.08
2022-12-03T05:45:04.966Z,45.03
2022-12-03T05:46:06.587Z,45.30
2022-12-03T05:47:08.186Z,45.06
2022-12-03T05:48:12.664Z,45.10
2022-12-03T05:49:14.183Z,45.14
2022-12-03T05:50:15.841Z,45.20
2022-12-03T05:51:17.427Z,45.13
2022-12-03T05:52:19.015Z,45.16
2022-12-03T05:53:20.559Z,45.14
2022-12-03T05:54:22.089Z,45.11
2022-12-03T05:55:24.112Z,45.07
2022-12-03T05:56:25.753Z,45.11
2022-12-03T05:57:27.324Z,45.04
2022-12-03T05:58:28.843Z,45.32
2022-12-03T05:59:30.393Z,45.03
2022-12-03T06:00:39.087Z,45.01
2022-12-03T06:01:43.565Z,45.03
2022-12-03T06:02:45.725Z,45.00
2022-12-03T06:03:47.440Z,45.05
2022-12-03T06:04:49.250Z,45.26
2022-12-03T06:05:50.996Z,45.11
2022-12-03T06:06:52.501Z,44.97
2022-12-03T06:07:54.133Z,45.02
2022-12-03T06:08:55.812Z,45.26
2022-12-03T06:09:57.393Z,45.14
2022-12-03T06:10:58.968Z,45.04
2022-12-03T06:12:00.887Z,44.91
2022-12-03T06:13:03.213Z,45.00
2022-12-03T06:14:04.734Z,45.15
2022-12-03T06:15:07.437Z,45.20
2022-12-03T06:16:09.024Z,45.06
2022-12-03T06:17:10.652Z,45.01
2022-12-03T06:18:12.210Z,45.16
2022-12-03T06:19:13.874Z,45.22
2022-12-03T06:20:18.539Z,45.22
2022-12-03T06:21:20.121Z,44.92
2022-12-03T06:22:21.645Z,45.12
2022-12-03T06:23:23.199Z,45.11
2022-12-03T06:24:24.784Z,45.06
2022-12-03T06:25:26.613Z,44.92
2022-12-03T06:26:28.250Z,45.08
2022-12-03T06:27:29.796Z,44.97
2022-12-03T06:28:31.344Z,45.01
2022-12-03T06:29:32.935Z,45.03
2022-12-03T06:30:35.829Z,45.15
2022-12-03T06:31:37.468Z,45.29
2022-12-03T06:32:39.105Z,45.03
2022-12-03T06:33:40.832Z,45.09
2022-12-03T06:34:42.377Z,45.12
2022-12-03T06:35:43.936Z,45.12
2022-12-03T06:36:46.873Z,45.06
2022-12-03T06:37:48.407Z,44.99
2022-12-03T06:38:49.969Z,44.92
2022-12-03T06:39:51.525Z,45.01
2022-12-03T06:40:53.151Z,44.84
2022-12-03T06:41:54.685Z,44.84
2022-12-03T06:42:56.358Z,44.94
2022-12-03T06:43:57.925Z,45.10
2022-12-03T06:44:59.453Z,44.87
2022-12-03T06:46:01.092Z,45.13
2022-12-03T06:48:04.467Z,45.08
2022-12-03T06:49:06.124Z,44.90
2022-12-03T06:50:08.902Z,45.15
2022-12-03T06:51:10.461Z,45.08
2022-12-03T06:52:12.060Z,45.05
2022-12-03T06:53:13.623Z,45.17
2022-12-03T06:55:16.840Z,44.98
2022-12-03T06:56:22.067Z,44.99
2022-12-03T06:57:24.120Z,44.96
2022-12-03T06:58:25.640Z,45.01
2022-12-03T06:59:27.298Z,45.19
2022-12-03T07:00:28.932Z,45.04
2022-12-03T07:01:30.620Z,45.02
2022-12-03T07:02:32.232Z,45.01
2022-12-03T07:03:33.887Z,44.90
2022-12-03T07:04:35.413Z,45.03
2022-12-03T07:05:37.335Z,44.92
2022-12-03T07:06:38.940Z,45.15
2022-12-03T07:07:40.565Z,44.65
2022-12-03T07:08:42.178Z,45.04
2022-12-03T07:10:45.222Z,45.08
2022-12-03T07:11:46.812Z,44.96
2022-12-03T07:13:49.793Z,44.91
2022-12-03T07:14:51.996Z,45.05
2022-12-03T07:15:53.937Z,45.00
2022-12-03T07:16:55.472Z,45.15
2022-12-03T07:17:57.155Z,45.08
2022-12-03T07:18:58.641Z,45.19
2022-12-03T07:20:00.249Z,45.05
2022-12-03T07:21:01.817Z,44.99
2022-12-03T07:22:03.353Z,44.91
2022-12-03T07:23:05.075Z,44.90
2022-12-03T07:25:08.903Z,44.79
2022-12-03T07:26:10.657Z,44.97
2022-12-03T07:27:12.177Z,44.81
2022-12-03T07:28:13.689Z,44.83
2022-12-03T07:29:15.225Z,45.10
2022-12-03T07:30:17.016Z,44.93
2022-12-03T07:31:18.791Z,45.02
2022-12-03T07:32:20.365Z,44.85
2022-12-03T07:33:22.131Z,44.91
2022-12-03T07:34:23.704Z,44.80
2022-12-03T07:35:25.247Z,45.00
2022-12-03T07:36:26.809Z,44.97
2022-12-03T07:37:28.450Z,44.79
2022-12-03T07:38:29.986Z,44.91
2022-12-03T07:39:31.496Z,44.98
2022-12-03T07:40:33.042Z,44.99
2022-12-03T07:41:34.564Z,44.84
2022-12-03T07:42:36.131Z,44.98
2022-12-03T07:43:37.647Z,44.88
2022-12-03T07:44:39.160Z,44.78
2022-12-03T07:45:40.705Z,44.86
2022-12-03T07:46:42.940Z,44.91
2022-12-03T07:47:44.581Z,44.85
2022-12-03T07:48:46.195Z,45.03
2022-12-03T07:49:47.728Z,44.99
2022-12-03T07:50:49.320Z,45.08
2022-12-03T07:51:54.344Z,44.76
2022-12-03T07:52:56.451Z,44.98
2022-12-03T07:53:58.015Z,44.90
2022-12-03T07:54:59.551Z,45.01
2022-12-03T07:56:01.088Z,44.98
2022-12-03T07:57:02.664Z,44.73
2022-12-03T07:58:04.312Z,44.77
2022-12-03T07:59:05.937Z,44.88
2022-12-03T08:00:08.102Z,44.76
2022-12-03T08:01:10.498Z,44.90
2022-12-03T08:02:13.889Z,44.55
2022-12-03T08:03:19.772Z,44.93
2022-12-03T08:04:21.556Z,44.85
2022-12-03T08:05:23.118Z,44.74
2022-12-03T08:06:24.698Z,44.90
2022-12-03T08:07:26.304Z,44.72
2022-12-03T08:08:27.949Z,44.78
2022-12-03T08:09:29.607Z,44.89
2022-12-03T08:10:31.151Z,44.81
2022-12-03T08:11:33.412Z,44.91
2022-12-03T08:12:40.680Z,45.03
2022-12-03T08:13:42.895Z,44.61
2022-12-03T08:14:44.678Z,44.85
2022-12-03T08:15:46.644Z,44.61
2022-12-03T08:16:48.796Z,44.67
2022-12-03T08:17:56.408Z,44.88
2022-12-03T08:18:58.018Z,44.84
2022-12-03T08:19:59.573Z,44.85
2022-12-03T08:21:01.096Z,44.71
2022-12-03T08:22:02.689Z,44.87
2022-12-03T08:23:10.360Z,44.61
2022-12-03T08:24:13.757Z,44.63
2022-12-03T08:25:35.571Z,44.39
2022-12-03T08:26:37.093Z,44.82
2022-12-03T08:27:38.671Z,44.77
2022-12-03T08:28:40.229Z,44.63
2022-12-03T08:29:41.804Z,44.79
2022-12-03T08:30:44.615Z,44.64
2022-12-03T08:31:50.086Z,44.85
2022-12-03T08:32:51.926Z,44.74
2022-12-03T08:33:59.436Z,44.73
2022-12-03T08:35:02.073Z,44.57
2022-12-03T08:36:13.929Z,44.76
2022-12-03T08:37:18.214Z,44.60
2022-12-03T08:38:23.362Z,44.71
2022-12-03T08:39:44.490Z,44.84
2022-12-03T08:40:47.987Z,44.57
2022-12-03T08:42:34.911Z,44.95
2022-12-03T08:43:42.025Z,44.79
2022-12-03T08:44:43.652Z,44.74
2022-12-03T08:45:45.523Z,44.84
2022-12-03T08:46:54.131Z,44.94
2022-12-03T08:48:01.954Z,44.64
2022-12-03T08:49:05.407Z,44.68
2022-12-03T08:50:28.088Z,44.79
2022-12-03T08:51:29.825Z,44.72
2022-12-03T08:52:33.349Z,44.75
2022-12-03T08:53:41.791Z,44.60
2022-12-03T08:54:46.811Z,44.55
2022-12-03T08:55:52.982Z,44.71
2022-12-03T08:56:55.307Z,44.64
2022-12-03T08:57:56.863Z,44.87
2022-12-03T08:59:24.303Z,44.93
2022-12-03T09:00:25.976Z,44.78
2022-12-03T09:01:32.232Z,44.68
2022-12-03T09:02:34.732Z,44.76
2022-12-03T09:03:47.382Z,44.75
2022-12-03T09:04:48.936Z,44.87
2022-12-03T09:05:50.491Z,44.89
2022-12-03T09:06:53.935Z,44.95
2022-12-03T09:07:55.583Z,44.83
2022-12-03T09:08:57.130Z,45.21
2022-12-03T09:09:58.638Z,45.25
2022-12-03T09:11:01.259Z,45.43
2022-12-03T09:12:03.451Z,45.47
2022-12-03T09:13:04.989Z,45.57
2022-12-03T09:14:06.566Z,45.52
2022-12-03T09:15:08.640Z,45.39
2022-12-03T09:16:10.236Z,45.40
2022-12-03T09:17:11.881Z,45.32
2022-12-03T09:18:14.698Z,45.37
2022-12-03T09:19:16.482Z,45.64
2022-12-03T09:20:18.123Z,45.49
2022-12-03T09:21:19.662Z,45.41
2022-12-03T09:22:21.210Z,45.64
2022-12-03T09:23:23.333Z,45.71
2022-12-03T09:24:25.027Z,45.52
2022-12-03T09:25:26.829Z,45.49
2022-12-03T09:26:28.589Z,45.46
2022-12-03T09:27:30.180Z,45.64
2022-12-03T09:28:31.754Z,45.64
2022-12-03T09:29:33.317Z,45.72
2022-12-03T09:30:34.854Z,45.51
2022-12-03T09:31:36.532Z,45.42
2022-12-03T09:32:38.235Z,45.65
2022-12-03T09:33:39.763Z,45.69
2022-12-03T09:34:42.384Z,45.62
2022-12-03T09:35:43.899Z,45.63
2022-12-03T09:36:45.498Z,45.61
2022-12-03T09:37:47.131Z,45.76
2022-12-03T09:38:48.738Z,45.56
2022-12-03T09:39:50.276Z,45.38
2022-12-03T09:40:52.113Z,45.41
2022-12-03T09:41:55.491Z,45.68
2022-12-03T09:42:59.814Z,45.48
2022-12-03T09:44:04.837Z,45.47
2022-12-03T09:45:10.928Z,45.50
2022-12-03T09:46:12.938Z,45.61
2022-12-03T09:47:14.639Z,45.78
2022-12-03T09:48:19.031Z,45.77
2022-12-03T09:49:20.637Z,45.69
2022-12-03T09:50:25.508Z,45.75
2022-12-03T09:51:32.871Z,45.77
2022-12-03T09:52:34.911Z,45.72
2022-12-03T09:53:41.155Z,45.51
2022-12-03T09:54:47.317Z,45.43
2022-12-03T09:55:50.083Z,45.45
2022-12-03T09:56:53.015Z,45.79
2022-12-03T09:57:56.328Z,45.51
2022-12-03T09:58:58.396Z,45.52
2022-12-03T09:59:59.952Z,45.75
2022-12-03T10:01:01.585Z,45.50
2022-12-03T10:02:04.431Z,45.39
2022-12-03T10:03:07.792Z,45.60
2022-12-03T10:04:09.879Z,45.69
2022-12-03T10:05:11.683Z,45.68
2022-12-03T10:06:19.070Z,45.75
2022-12-03T10:07:21.033Z,45.60
2022-12-03T10:08:28.136Z,45.78
2022-12-03T10:09:32.475Z,45.53
2022-12-03T10:10:35.495Z,45.51
2022-12-03T10:11:37.222Z,45.50
2022-12-03T10:12:38.795Z,45.63
2022-12-03T10:13:41.268Z,45.86
2022-12-03T10:14:43.074Z,45.71
2022-12-03T10:15:44.625Z,45.81
2022-12-03T10:16:46.841Z,45.60
2022-12-03T10:17:50.683Z,45.63
2022-12-03T10:18:58.628Z,45.86
2022-12-03T10:20:01.454Z,45.61
2022-12-03T10:21:03.160Z,45.53
2022-12-03T10:22:04.731Z,45.70
2022-12-03T10:23:06.266Z,45.67
2022-12-03T10:24:31.386Z,46.00
2022-12-03T10:25:34.768Z,45.80
2022-12-03T10:26:40.658Z,45.60
2022-12-03T10:27:42.532Z,45.74
2022-12-03T10:28:46.934Z,45.78
2022-12-03T10:29:57.287Z,45.52
2022-12-03T10:31:00.870Z,45.78
2022-12-03T10:32:08.578Z,45.58
2022-12-03T10:33:19.042Z,45.76
2022-12-03T10:34:25.007Z,45.21
2022-12-03T10:35:41.423Z,45.54
2022-12-03T10:36:43.008Z,45.48
2022-12-03T10:38:01.127Z,45.49
2022-12-03T10:39:16.212Z,45.55
2022-12-03T10:40:25.118Z,45.40
2022-12-03T10:41:28.176Z,45.56
2022-12-03T10:42:32.817Z,45.27
2022-12-03T10:43:34.392Z,45.28
2022-12-03T10:44:36.511Z,45.45
2022-12-03T10:45:38.032Z,45.25
2022-12-03T10:46:39.825Z,45.28
2022-12-03T10:48:03.149Z,45.34
2022-12-03T10:49:17.150Z,45.43
2022-12-03T10:50:20.125Z,45.33
2022-12-03T10:51:21.862Z,45.36
2022-12-03T10:52:25.959Z,45.31
2022-12-03T10:53:30.621Z,45.31
2022-12-03T10:54:35.374Z,45.09
2022-12-03T10:55:42.000Z,45.36
2022-12-03T10:56:44.629Z,45.16
2022-12-03T10:57:47.110Z,45.19
2022-12-03T10:58:48.675Z,45.28
2022-12-03T10:59:50.249Z,45.44
2022-12-03T11:00:54.530Z,45.36
2022-12-03T11:01:56.191Z,45.13
2022-12-03T11:02:57.910Z,45.36
2022-12-03T11:04:04.182Z,45.46
2022-12-03T11:05:06.176Z,45.27
2022-12-03T11:06:14.906Z,45.15
2022-12-03T11:07:19.315Z,45.23
2022-12-03T11:08:24.266Z,45.07
2022-12-03T11:09:29.841Z,45.33
2022-12-03T11:10:31.388Z,45.15
2022-12-03T11:11:32.945Z,45.12
2022-12-03T11:12:35.648Z,45.08
2022-12-03T11:13:37.167Z,45.02
2022-12-03T11:14:51.230Z,45.25
2022-12-03T11:15:53.793Z,44.98
2022-12-03T11:16:55.400Z,45.10
2022-12-03T11:17:56.993Z,45.09
2022-12-03T11:19:00.126Z,45.21
2022-12-03T11:20:01.692Z,45.14
2022-12-03T11:21:06.305Z,45.16
2022-12-03T11:22:10.540Z,45.11
2022-12-03T11:23:12.094Z,45.09
2022-12-03T11:24:19.833Z,45.09
2022-12-03T11:25:27.480Z,44.96
2022-12-03T11:26:29.005Z,45.10
2022-12-03T11:27:30.674Z,44.95
2022-12-03T11:28:34.553Z,45.17
2022-12-03T11:29:59.598Z,45.04
2022-12-03T11:31:09.857Z,45.06
2022-12-03T11:32:11.558Z,45.18
2022-12-03T11:33:24.979Z,44.96
2022-12-03T11:34:40.521Z,44.81
2022-12-03T11:36:36.344Z,45.20
2022-12-03T11:37:42.224Z,44.94
2022-12-03T11:38:52.255Z,45.05
2022-12-03T11:40:24.900Z,45.14
2022-12-03T11:41:32.560Z,45.01
2022-12-03T11:42:40.952Z,44.94
2022-12-03T11:43:57.556Z,45.01
2022-12-03T11:45:11.219Z,44.94
2022-12-03T11:46:12.807Z,44.92
2022-12-03T11:47:16.197Z,44.98
2022-12-03T11:48:18.737Z,45.16
2022-12-03T11:49:30.075Z,45.10
2022-12-03T11:50:39.701Z,44.91
2022-12-03T11:51:44.785Z,44.91
2022-12-03T11:52:49.961Z,44.77
2022-12-03T11:53:53.211Z,44.95
2022-12-03T11:54:59.914Z,44.87
2022-12-03T11:56:08.562Z,44.85
2022-12-03T11:57:30.542Z,45.16
2022-12-03T11:58:33.127Z,44.84
2022-12-03T11:59:34.658Z,44.67
2022-12-03T12:00:36.179Z,44.86
2022-12-03T12:01:42.895Z,44.84
2022-12-03T12:02:44.633Z,44.78
2022-12-03T12:03:50.723Z,44.77
2022-12-03T12:04:52.430Z,45.01
2022-12-03T12:06:04.044Z,44.97
2022-12-03T12:07:05.632Z,44.89
2022-12-03T12:08:19.509Z,45.16
2022-12-03T12:09:49.649Z,45.07
2022-12-03T12:10:51.198Z,45.09
2022-12-03T12:11:52.768Z,45.01
2022-12-03T12:12:55.212Z,45.16
2022-12-03T12:13:57.118Z,44.92
2022-12-03T12:14:59.230Z,44.81
2022-12-03T12:16:08.517Z,44.99
2022-12-03T12:17:37.384Z,45.03
2022-12-03T12:18:45.180Z,45.08
2022-12-03T12:19:52.652Z,44.94
2022-12-03T12:20:55.879Z,45.01
2022-12-03T12:22:26.684Z,45.09
2022-12-03T12:23:29.203Z,44.91
2022-12-03T12:24:51.645Z,45.08
2022-12-03T12:25:54.493Z,45.10
2022-12-03T12:26:58.163Z,44.91
2022-12-03T12:27:59.689Z,44.95
2022-12-03T12:29:01.257Z,44.77
2022-12-03T12:30:28.217Z,45.09
2022-12-03T12:31:29.826Z,44.86
2022-12-03T12:32:34.392Z,45.04
2022-12-03T12:33:35.945Z,44.84
2022-12-03T12:34:38.703Z,45.04
2022-12-03T12:35:41.541Z,45.09
2022-12-03T12:36:43.061Z,44.90
2022-12-03T12:37:59.531Z,44.87
2022-12-03T12:39:01.437Z,44.88
2022-12-03T12:40:12.571Z,45.11
2022-12-03T12:41:14.159Z,45.04
2022-12-03T12:42:35.562Z,45.04
2022-12-03T12:43:39.510Z,45.02
2022-12-03T12:44:41.541Z,44.96
2022-12-03T12:45:43.702Z,45.14
2022-12-03T12:46:48.576Z,45.22
2022-12-03T12:48:13.013Z,45.29
2022-12-03T12:49:15.418Z,45.00
2022-12-03T12:50:18.620Z,44.94
2022-12-03T12:51:20.199Z,45.01
2022-12-03T12:52:21.913Z,45.14
2022-12-03T12:53:28.119Z,45.07
2022-12-03T12:54:29.693Z,45.08
2022-12-03T12:55:31.337Z,45.14
2022-12-03T12:56:32.968Z,44.87
2022-12-03T12:57:34.645Z,45.22
2022-12-03T12:58:36.173Z,45.01
2022-12-03T12:59:37.723Z,45.04
2022-12-03T13:00:39.725Z,45.08
2022-12-03T13:01:43.289Z,45.06
2022-12-03T13:02:51.895Z,45.14
2022-12-03T13:03:53.595Z,45.03
2022-12-03T13:04:55.103Z,45.08
2022-12-03T13:05:57.680Z,44.91
2022-12-03T13:06:59.668Z,44.96
2022-12-03T13:08:03.641Z,44.99
2022-12-03T13:09:21.377Z,45.09
2022-12-03T13:10:55.413Z,45.03
2022-12-03T13:12:04.102Z,44.90
2022-12-03T13:13:25.826Z,45.13
2022-12-03T13:14:36.964Z,45.09
2022-12-03T13:15:52.415Z,44.97
2022-12-03T13:16:56.948Z,45.09
2022-12-03T13:17:58.580Z,45.03
2022-12-03T13:19:01.620Z,44.98
2022-12-03T13:20:17.182Z,45.16
2022-12-03T13:21:18.821Z,44.92
2022-12-03T13:22:22.445Z,45.21
2022-12-03T13:23:30.400Z,45.00
2022-12-03T13:24:34.995Z,44.92
2022-12-03T13:27:08.815Z,45.27
2022-12-03T13:28:12.682Z,45.15
2022-12-03T13:29:18.276Z,45.12
2022-12-03T13:30:23.467Z,45.13
2022-12-03T13:31:33.307Z,45.23
2022-12-03T13:32:37.876Z,44.91
2022-12-03T13:33:39.458Z,45.13
2022-12-03T13:34:41.192Z,45.20
2022-12-03T13:35:43.297Z,45.03
2022-12-03T13:36:49.326Z,45.26
2022-12-03T13:37:54.982Z,45.26
2022-12-03T13:38:57.304Z,45.28
2022-12-03T13:40:11.820Z,45.06
2022-12-03T13:41:36.785Z,45.22
2022-12-03T13:42:46.508Z,45.07
2022-12-03T13:43:48.053Z,45.04
2022-12-03T13:44:50.115Z,44.85
2022-12-03T13:45:54.274Z,45.18
2022-12-03T13:46:55.908Z,45.18
2022-12-03T13:48:04.107Z,44.95
2022-12-03T13:49:16.959Z,44.98
2022-12-03T13:50:27.325Z,45.16
2022-12-03T13:51:32.907Z,45.18
2022-12-03T13:52:34.809Z,45.00
2022-12-03T13:53:38.730Z,45.15
2022-12-03T13:54:40.611Z,45.06
2022-12-03T13:55:47.309Z,45.02
2022-12-03T13:56:50.071Z,45.14
2022-12-03T13:57:51.630Z,45.14
2022-12-03T13:58:53.612Z,44.93
2022-12-03T13:59:55.375Z,45.09
2022-12-03T14:00:57.141Z,45.17
2022-12-03T14:01:58.765Z,45.03